Time;durP1;ratioP1;P1;durP2;ratioP2;P2;SDS_P1;SDS_P2;PMS_P1;PMS_P2;Temp;Humidity;BMP_temperature;BMP_pressure;BME280_temperature;BME280_humidity;BME280_pressure;Samples;Min_cycle;Max_cycle;Signal;HPM_P1;HPM_P2
2022/03/15 00:04:19;;;;;;;;;;;;;;;7.23;66.57129;102883.7;;;;-80
2022/03/15 00:09:19;;;;;;;;;;;;;;;7.21;66.74609;102885.8;;;;-81
2022/03/15 00:09:54;;;;;;;5.3;1.8;;;;;;;;;;;;;-81
2022/03/15 00:14:19;;;;;;;;;;;;;;;7.21;66.67773;102882.2;;;;-80
2022/03/15 00:19:18;;;;;;;;;;;;;;;7.2;66.56543;102880.8;;;;-80
2022/03/15 00:24:19;;;;;;;;;;;;;;;7.19;66.52148;102875.7;;;;-81
2022/03/15 00:29:23;;;;;;;;;;;;;;;7.17;66.59473;102868.7;;;;-81
2022/03/15 00:34:19;;;;;;;;;;;;;;;7.18;66.93945;102866.8;;;;-79
2022/03/15 00:39:19;;;;;;;;;;;;;;;7.18;66.8623;102864.4;;;;-81
2022/03/15 00:39:54;;;;;;;5.5;2;;;;;;;;;;;;;-80
2022/03/15 00:44:19;;;;;;;;;;;;;;;7.2;66.66504;102856.2;;;;-80
2022/03/15 00:49:24;;;;;;;;;;;;;;;7.21;66.69141;102850.6;;;;-81
2022/03/15 00:54:29;;;;;;;;;;;;;;;7.23;66.62598;102857.9;;;;-80
2022/03/15 00:59:19;;;;;;;;;;;;;;;7.24;66.47363;102855.5;;;;-80
2022/03/15 01:04:21;;;;;;;;;;;;;;;7.25;66.60742;102853.1;;;;-81
2022/03/15 01:09:19;;;;;;;;;;;;;;;7.23;66.6377;102848.6;;;;-81
2022/03/15 01:09:55;;;;;;;5.4;2.1;;;;;;;;;;;;;-81
2022/03/15 01:14:20;;;;;;;;;;;;;;;7.24;66.37402;102850.9;;;;-81
2022/03/15 01:19:21;;;;;;;;;;;;;;;7.22;66.80176;102846;;;;-79
2022/03/15 01:24:19;;;;;;;;;;;;;;;7.2;66.76563;102845.1;;;;-80
2022/03/15 01:29:20;;;;;;;;;;;;;;;7.18;66.7832;102837.2;;;;-80
2022/03/15 01:34:22;;;;;;;;;;;;;;;7.13;66.86426;102831.3;;;;-80
2022/03/15 01:39:21;;;;;;;;;;;;;;;7.09;66.60449;102828.7;;;;-80
2022/03/15 01:39:55;;;;;;;7.7;2.2;;;;;;;;;;;;;-80
2022/03/15 01:44:22;;;;;;;;;;;;;;;7.05;66.96191;102829.3;;;;-80
2022/03/15 01:49:18;;;;;;;;;;;;;;;7.03;67.11328;102828.3;;;;-81
2022/03/15 01:54:20;;;;;;;;;;;;;;;7.02;67.0459;102822.6;;;;-81
2022/03/15 01:59:19;;;;;;;;;;;;;;;7.02;66.75977;102819.3;;;;-80
2022/03/15 02:04:20;;;;;;;;;;;;;;;7.04;66.93848;102809.4;;;;-81
2022/03/15 02:09:20;;;;;;;;;;;;;;;7.05;66.81836;102801;;;;-80
2022/03/15 02:09:57;;;;;;;5;2.3;;;;;;;;;;;;;-80
2022/03/15 02:14:28;;;;;;;;;;;;;;;7.06;67.11816;102806.9;;;;-79
2022/03/15 02:19:20;;;;;;;;;;;;;;;7.09;67.24316;102803.9;;;;-81
2022/03/15 02:24:19;;;;;;;;;;;;;;;7.1;67.59766;102804;;;;-79
2022/03/15 02:29:19;;;;;;;;;;;;;;;7.11;67.39063;102799.4;;;;-79
2022/03/15 02:34:22;;;;;;;;;;;;;;;7.11;66.99219;102784.5;;;;-80
2022/03/15 02:39:18;;;;;;;;;;;;;;;7.11;66.9834;102784.6;;;;-79
2022/03/15 02:39:56;;;;;;;5.5;2.3;;;;;;;;;;;;;-79
2022/03/15 02:44:18;;;;;;;;;;;;;;;7.08;67.07813;102780.5;;;;-80
2022/03/15 02:49:18;;;;;;;;;;;;;;;7.04;66.86133;102777;;;;-81
2022/03/15 02:54:24;;;;;;;;;;;;;;;6.98;66.8623;102775.4;;;;-80
2022/03/15 02:59:27;;;;;;;;;;;;;;;6.9;66.83887;102771;;;;-79
2022/03/15 03:04:19;;;;;;;;;;;;;;;6.82;67.02637;102765.7;;;;-79
2022/03/15 03:09:19;;;;;;;;;;;;;;;6.75;67.21289;102761.3;;;;-81
2022/03/15 03:10:05;;;;;;;6.4;2.5;;;;;;;;;;;;;-80
2022/03/15 03:14:21;;;;;;;;;;;;;;;6.71;67.48242;102755.7;;;;-80
2022/03/15 03:19:26;;;;;;;;;;;;;;;6.66;67.33203;102754.3;;;;-79
2022/03/15 03:24:21;;;;;;;;;;;;;;;6.62;67.12695;102753;;;;-81
2022/03/15 03:29:19;;;;;;;;;;;;;;;6.59;67.1123;102751.7;;;;-80
2022/03/15 03:34:18;;;;;;;;;;;;;;;6.55;67.28125;102749.7;;;;-80
2022/03/15 03:39:19;;;;;;;;;;;;;;;6.53;67.14648;102748.2;;;;-80
2022/03/15 03:39:57;;;;;;;5.7;2.4;;;;;;;;;;;;;-80
2022/03/15 03:44:19;;;;;;;;;;;;;;;6.5;67.64648;102744.3;;;;-80
2022/03/15 03:49:19;;;;;;;;;;;;;;;6.49;67.4043;102747.3;;;;-79
2022/03/15 03:54:19;;;;;;;;;;;;;;;6.48;67.7207;102747.8;;;;-80
2022/03/15 03:59:20;;;;;;;;;;;;;;;6.46;67.79492;102749;;;;-81
2022/03/15 04:04:19;;;;;;;;;;;;;;;6.44;67.94629;102746.8;;;;-80
2022/03/15 04:09:21;;;;;;;;;;;;;;;6.41;67.74414;102747.3;;;;-80
2022/03/15 04:10:00;;;;;;;8.3;2.9;;;;;;;;;;;;;-79
2022/03/15 04:14:19;;;;;;;;;;;;;;;6.39;67.66406;102748;;;;-80
2022/03/15 04:19:21;;;;;;;;;;;;;;;6.37;67.62793;102747.5;;;;-80
2022/03/15 04:24:18;;;;;;;;;;;;;;;6.35;67.39258;102746;;;;-80
2022/03/15 04:29:20;;;;;;;;;;;;;;;6.32;67.88379;102748.2;;;;-81
2022/03/15 04:34:18;;;;;;;;;;;;;;;6.31;67.9248;102752.6;;;;-81
2022/03/15 04:39:19;;;;;;;;;;;;;;;6.3;68.16504;102746.1;;;;-81
2022/03/15 04:39:58;;;;;;;10.3;4.1;;;;;;;;;;;;;-81
2022/03/15 04:44:26;;;;;;;;;;;;;;;6.29;68.24219;102743.9;;;;-82
2022/03/15 04:49:24;;;;;;;;;;;;;;;6.29;68.24023;102738.5;;;;-80
2022/03/15 04:54:18;;;;;;;;;;;;;;;6.29;68.71484;102734.7;;;;-80
2022/03/15 04:59:22;;;;;;;;;;;;;;;6.31;68.65039;102731;;;;-80
2022/03/15 05:04:19;;;;;;;;;;;;;;;6.31;68.71875;102727.4;;;;-80
2022/03/15 05:09:21;;;;;;;;;;;;;;;6.31;69.13672;102717.8;;;;-79
2022/03/15 05:14:21;;;;;;;;;;;;;;;6.32;68.58691;102717.9;;;;-80
2022/03/15 05:19:19;;;;;;;;;;;;;;;6.33;69.16016;102716;;;;-80
2022/03/15 05:24:20;;;;;;;;;;;;;;;6.34;69.31543;102708.4;;;;-80
2022/03/15 05:29:18;;;;;;;;;;;;;;;6.33;69.24805;102707;;;;-81
2022/03/15 05:34:18;;;;;;;;;;;;;;;6.34;69.86621;102705.9;;;;-80
2022/03/15 05:39:20;;;;;;;;;;;;;;;6.36;69.78125;102703.6;;;;-79
2022/03/15 05:40:00;;;;;;;14.7;6.2;;;;;;;;;;;;;-79
2022/03/15 05:44:18;;;;;;;;;;;;;;;6.37;69.29785;102694.6;;;;-81
2022/03/15 05:49:18;;;;;;;;;;;;;;;6.38;69.71875;102690.6;;;;-79
2022/03/15 05:54:21;;;;;;;;;;;;;;;6.39;69.48926;102692.9;;;;-80
2022/03/15 05:59:20;;;;;;;;;;;;;;;6.41;69.81055;102685.1;;;;-82
2022/03/15 06:04:19;;;;;;;;;;;;;;;6.41;69.41504;102682.5;;;;-79
2022/03/15 06:09:19;;;;;;;;;;;;;;;6.41;69.54883;102678.6;;;;-80
2022/03/15 06:10:05;;;;;;;16.5;6.5;;;;;;;;;;;;;-81
2022/03/15 06:14:18;;;;;;;;;;;;;;;6.41;69.22852;102681.9;;;;-82
2022/03/15 06:19:18;;;;;;;;;;;;;;;6.42;69.99902;102688;;;;-81
2022/03/15 06:24:27;;;;;;;;;;;;;;;6.43;69.62695;102686.9;;;;-79
2022/03/15 06:29:23;;;;;;;;;;;;;;;6.43;69.5166;102682.9;;;;-80
2022/03/15 06:34:21;;;;;;;;;;;;;;;6.44;70.02441;102677.2;;;;-79
2022/03/15 06:39:22;;;;;;;;;;;;;;;6.45;69.34375;102668.1;;;;-82
2022/03/15 06:39:58;;;;;;;15.1;7.2;;;;;;;;;;;;;-81
2022/03/15 06:44:21;;;;;;;;;;;;;;;6.47;69.15039;102663;;;;-82
2022/03/15 06:49:18;;;;;;;;;;;;;;;6.5;69.46289;102661.9;;;;-79
2022/03/15 06:54:18;;;;;;;;;;;;;;;6.53;69.20215;102659.1;;;;-81
2022/03/15 06:59:27;;;;;;;;;;;;;;;6.56;69.29688;102656.6;;;;-80
2022/03/15 07:04:22;;;;;;;;;;;;;;;6.59;69.20215;102664.9;;;;-80
2022/03/15 07:09:18;;;;;;;;;;;;;;;6.63;68.84375;102659.7;;;;-80
2022/03/15 07:09:58;;;;;;;20.5;8.1;;;;;;;;;;;;;-80
2022/03/15 07:14:24;;;;;;;;;;;;;;;6.67;69.12598;102665.2;;;;-79
2022/03/15 07:19:18;;;;;;;;;;;;;;;6.72;69.74023;102664;;;;-80
2022/03/15 07:24:26;;;;;;;;;;;;;;;6.77;69.61523;102665.8;;;;-80
2022/03/15 07:29:19;;;;;;;;;;;;;;;6.82;70.04199;102663.8;;;;-80
2022/03/15 07:34:20;;;;;;;;;;;;;;;6.84;70.24414;102663.3;;;;-79
2022/03/15 07:39:18;;;;;;;;;;;;;;;6.9;69.97656;102660.3;;;;-80
2022/03/15 07:39:58;;;;;;;20.1;8.7;;;;;;;;;;;;;-80
2022/03/15 07:44:18;;;;;;;;;;;;;;;6.95;70.27148;102663.3;;;;-80
2022/03/15 07:49:22;;;;;;;;;;;;;;;7.01;70.07324;102660.5;;;;-79
2022/03/15 07:54:22;;;;;;;;;;;;;;;7.09;70.08594;102657.7;;;;-81
2022/03/15 07:59:21;;;;;;;;;;;;;;;7.18;69.92285;102658.5;;;;-79
2022/03/15 08:04:21;;;;;;;;;;;;;;;7.26;69.84863;102660.1;;;;-81
2022/03/15 08:09:18;;;;;;;;;;;;;;;7.34;69.81738;102663.2;;;;-78
2022/03/15 08:10:03;;;;;;;21.3;9.2;;;;;;;;;;;;;-80
2022/03/15 08:14:19;;;;;;;;;;;;;;;7.42;69.41211;102663.4;;;;-78
2022/03/15 08:19:26;;;;;;;;;;;;;;;7.56;69.85449;102663.1;;;;-81
2022/03/15 08:24:27;;;;;;;;;;;;;;;7.65;68.86426;102648.8;;;;-79
2022/03/15 08:29:18;;;;;;;;;;;;;;;7.72;68.50977;102642.7;;;;-80
2022/03/15 08:34:21;;;;;;;;;;;;;;;7.82;68.27246;102647.8;;;;-80
2022/03/15 08:39:23;;;;;;;;;;;;;;;7.92;68.06836;102645.7;;;;-79
2022/03/15 08:40:02;;;;;;;22.3;9.6;;;;;;;;;;;;;-80
2022/03/15 08:44:18;;;;;;;;;;;;;;;8.01;67.77344;102644.1;;;;-80
2022/03/15 08:49:21;;;;;;;;;;;;;;;8.13;67.62695;102642.9;;;;-82
2022/03/15 08:54:22;;;;;;;;;;;;;;;8.27;67.92383;102638.4;;;;-80
2022/03/15 08:59:27;;;;;;;;;;;;;;;8.43;67.49609;102639.8;;;;-81
2022/03/15 09:04:19;;;;;;;;;;;;;;;8.61;67.25977;102639.4;;;;-82
2022/03/15 09:09:24;;;;;;;;;;;;;;;8.76;67.39258;102635.6;;;;-80
2022/03/15 09:10:03;;;;;;;20.2;9.3;;;;;;;;;;;;;-81
2022/03/15 09:14:23;;;;;;;;;;;;;;;8.91;66.87305;102633.6;;;;-81
2022/03/15 09:19:19;;;;;;;;;;;;;;;9.05;66.71777;102629.9;;;;-82
2022/03/15 09:24:22;;;;;;;;;;;;;;;9.23;66.76855;102617.1;;;;-81
2022/03/15 09:29:20;;;;;;;;;;;;;;;9.4;66.49414;102617.2;;;;-80
2022/03/15 09:34:25;;;;;;;;;;;;;;;9.56;66.00879;102610.5;;;;-81
2022/03/15 09:39:22;;;;;;;;;;;;;;;9.76;66.02832;102605;;;;-80
2022/03/15 09:40:01;;;;;;;19.4;9.1;;;;;;;;;;;;;-81
2022/03/15 09:44:20;;;;;;;;;;;;;;;10.04;65.85938;102597.7;;;;-80
2022/03/15 09:49:22;;;;;;;;;;;;;;;10.39;64.71387;102596.6;;;;-81
2022/03/15 09:54:19;;;;;;;;;;;;;;;10.72;64.42871;102595.1;;;;-81
2022/03/15 09:59:20;;;;;;;;;;;;;;;11.03;63.7627;102588.9;;;;-83
2022/03/15 10:04:20;;;;;;;;;;;;;;;11.39;63.04688;102583.5;;;;-81
2022/03/15 10:09:18;;;;;;;;;;;;;;;11.73;62.78223;102577;;;;-81
2022/03/15 10:10:04;;;;;;;18.4;9.3;;;;;;;;;;;;;-79
2022/03/15 10:14:25;;;;;;;;;;;;;;;12.13;62.4043;102574.2;;;;-78
2022/03/15 10:19:19;;;;;;;;;;;;;;;12.63;62.08398;102569.7;;;;-80
2022/03/15 10:24:22;;;;;;;;;;;;;;;13.17;61.88184;102561.3;;;;-82
2022/03/15 10:29:23;;;;;;;;;;;;;;;13.73;60.31152;102553;;;;-80
2022/03/15 10:34:20;;;;;;;;;;;;;;;14.25;59.54102;102542.2;;;;-82
2022/03/15 10:39:26;;;;;;;;;;;;;;;14.69;59.10742;102537.6;;;;-82
2022/03/15 10:40:02;;;;;;;17.9;8.9;;;;;;;;;;;;;-81
2022/03/15 10:44:30;;;;;;;;;;;;;;;15.07;57.85156;102526.4;;;;-80
2022/03/15 10:49:20;;;;;;;;;;;;;;;15.41;57.32227;102521.1;;;;-82
2022/03/15 10:54:21;;;;;;;;;;;;;;;15.67;56.72461;102515.8;;;;-81
2022/03/15 10:59:30;;;;;;;;;;;;;;;15.92;56.80078;102513.7;;;;-79
2022/03/15 11:04:19;;;;;;;;;;;;;;;16.11;56.88184;102505.4;;;;-81
2022/03/15 11:09:26;;;;;;;;;;;;;;;16.29;57.63965;102501.8;;;;-82
2022/03/15 11:10:11;;;;;;;26;12.4;;;;;;;;;;;;;-82
2022/03/15 11:14:29;;;;;;;;;;;;;;;16.56;62.61816;102497.9;;;;-83
2022/03/15 11:19:19;;;;;;;;;;;;;;;16.86;63.59766;102486.1;;;;-82
2022/03/15 11:24:23;;;;;;;;;;;;;;;17.18;64.97461;102478.9;;;;-81
2022/03/15 11:29:23;;;;;;;;;;;;;;;17.44;65.39746;102478.3;;;;-81
2022/03/15 11:34:22;;;;;;;;;;;;;;;17.64;65.22363;102473.5;;;;-82
2022/03/15 11:39:18;;;;;;;;;;;;;;;17.81;62.85156;102469.2;;;;-82
2022/03/15 11:40:08;;;;;;;16.5;8.1;;;;;;;;;;;;;-82
2022/03/15 11:44:28;;;;;;;;;;;;;;;17.85;61.77148;102461.1;;;;-82
2022/03/15 11:49:28;;;;;;;;;;;;;;;17.97;62.05957;102466.2;;;;-83
2022/03/15 11:54:26;;;;;;;;;;;;;;;18.03;63.32324;102464;;;;-80
2022/03/15 11:59:21;;;;;;;;;;;;;;;18.12;64.67285;102454.5;;;;-81
2022/03/15 12:04:20;;;;;;;;;;;;;;;18.24;65.62891;102444.5;;;;-82
2022/03/15 12:09:24;;;;;;;;;;;;;;;18.39;65.18457;102434.6;;;;-82
2022/03/15 12:10:13;;;;;;;15.2;7.7;;;;;;;;;;;;;-80
2022/03/15 12:14:21;;;;;;;;;;;;;;;18.5;65.81348;102422.7;;;;-81
2022/03/15 12:19:34;;;;;;;;;;;;;;;18.6;65.79395;102418.4;;;;-82
2022/03/15 12:24:20;;;;;;;;;;;;;;;18.83;65.98633;102408.8;;;;-82
2022/03/15 12:29:21;;;;;;;;;;;;;;;18.93;66.33008;102404.6;;;;-81
2022/03/15 12:34:22;;;;;;;;;;;;;;;18.99;65.70313;102402.3;;;;-83
2022/03/15 12:39:22;;;;;;;;;;;;;;;19.07;67.98242;102398.3;;;;-82
2022/03/15 12:40:14;;;;;;;12.9;5.9;;;;;;;;;;;;;-83
2022/03/15 12:49:23;;;;;;;;;;;;;;;19.25;67.72559;102387.8;;;;-82
2022/03/15 12:54:27;;;;;;;;;;;;;;;19.39;68.60938;102380;;;;-82
2022/03/15 12:59:28;;;;;;;;;;;;;;;19.59;67.87988;102373.3;;;;-82
2022/03/15 13:04:21;;;;;;;;;;;;;;;19.69;68.46289;102371.5;;;;-82
2022/03/15 13:09:35;;;;;;;;;;;;;;;19.8;68.95508;102372.1;;;;-82
2022/03/15 13:10:13;;;;;;;9.6;4.7;;;;;;;;;;;;;-82
2022/03/15 13:14:24;;;;;;;;;;;;;;;19.97;68.6416;102374.1;;;;-83
2022/03/15 13:19:40;;;;;;;;;;;;;;;20.01;68.44336;102375.7;;;;-83
2022/03/15 13:24:26;;;;;;;;;;;;;;;20.02;69.5918;102374.7;;;;-82
2022/03/15 13:29:21;;;;;;;;;;;;;;;20.21;69.29102;102375.1;;;;-84
2022/03/15 13:34:26;;;;;;;;;;;;;;;20.33;68.35449;102385.7;;;;-82
2022/03/15 13:39:21;;;;;;;;;;;;;;;20.37;67.72559;102385.9;;;;-83
2022/03/15 13:40:20;;;;;;;9.9;4.9;;;;;;;;;;;;;-83
2022/03/15 13:44:21;;;;;;;;;;;;;;;20.37;67.84082;102390.3;;;;-83
2022/03/15 13:49:27;;;;;;;;;;;;;;;20.39;66.86621;102392.3;;;;-83
2022/03/15 13:54:19;;;;;;;;;;;;;;;20.31;66.77441;102390.8;;;;-82
2022/03/15 13:59:21;;;;;;;;;;;;;;;20.27;66.6543;102374.6;;;;-81
2022/03/15 14:04:31;;;;;;;;;;;;;;;20.3;65.23926;102353;;;;-83
2022/03/15 14:09:29;;;;;;;;;;;;;;;20.25;64.50391;102341.3;;;;-82
2022/03/15 14:10:21;;;;;;;10.9;5.8;;;;;;;;;;;;;-85
2022/03/15 14:14:25;;;;;;;;;;;;;;;20.15;64.61426;102339.1;;;;-83
2022/03/15 14:19:33;;;;;;;;;;;;;;;20.03;64.72266;102340.1;;;;-83
2022/03/15 14:24:33;;;;;;;;;;;;;;;19.95;64.58594;102341.9;;;;-84
2022/03/15 14:29:21;;;;;;;;;;;;;;;19.91;64.43164;102349.2;;;;-83
2022/03/15 14:34:20;;;;;;;;;;;;;;;19.83;64.97754;102349.2;;;;-83
2022/03/15 14:39:22;;;;;;;;;;;;;;;19.79;63.48242;102337.1;;;;-83
2022/03/15 14:40:24;;;;;;;10.2;4.6;;;;;;;;;;;;;-82
2022/03/15 14:44:21;;;;;;;;;;;;;;;19.73;63.27246;102340.6;;;;-82
2022/03/15 14:49:23;;;;;;;;;;;;;;;19.68;63.17383;102333.5;;;;-82
2022/03/15 14:54:24;;;;;;;;;;;;;;;19.64;63.46191;102323.6;;;;-80
2022/03/15 14:59:21;;;;;;;;;;;;;;;19.55;63.89355;102323.9;;;;-84
2022/03/15 15:04:21;;;;;;;;;;;;;;;19.47;64.41309;102322.8;;;;-84
2022/03/15 15:09:24;;;;;;;;;;;;;;;19.47;59.75879;102315.8;;;;-82
2022/03/15 15:10:24;;;;;;;8.5;4.1;;;;;;;;;;;;;-84
2022/03/15 15:14:21;;;;;;;;;;;;;;;19.38;55.87207;102316.9;;;;-83
2022/03/15 15:19:22;;;;;;;;;;;;;;;19.25;59.33203;102317.8;;;;-85
2022/03/15 15:24:27;;;;;;;;;;;;;;;19.01;61.22949;102313.2;;;;-83
2022/03/15 15:29:30;;;;;;;;;;;;;;;18.84;61.89844;102308.2;;;;-81
2022/03/15 15:34:32;;;;;;;;;;;;;;;18.62;60.65527;102306.1;;;;-82
2022/03/15 15:39:29;;;;;;;;;;;;;;;18.46;62.24121;102302.3;;;;-82
2022/03/15 15:40:34;;;;;;;6.8;3.8;;;;;;;;;;;;;-82
2022/03/15 15:45:27;;;;;;;;;;;;;;;18.37;61.58301;102305.6;;;;-85
2022/03/15 15:58:51;;;;;;;;;;;;;;;17.92;61.74805;102298.9;;;;-79
2022/03/15 16:03:54;;;;;;;;;;;;;;;17.76;61.25977;102301;;;;-80
2022/03/15 16:08:50;;;;;;;;;;;;;;;17.54;60.92578;102306.2;;;;-80
2022/03/15 16:10:33;;;;;;;7.1;3.5;;;;;;;;;;;;;-84
2022/03/15 16:13:50;;;;;;;;;;;;;;;17.32;60.67969;102303.3;;;;-81
2022/03/15 16:18:52;;;;;;;;;;;;;;;17.1;60.63867;102308.1;;;;-82
2022/03/15 16:23:55;;;;;;;;;;;;;;;16.91;60.33008;102305.9;;;;-80
2022/03/15 16:33:50;;;;;;;;;;;;;;;16.56;59.80859;102312.2;;;;-80
2022/03/15 16:38:50;;;;;;;;;;;;;;;16.39;60.27148;102310.7;;;;-80
2022/03/15 16:40:31;;;;;;;12.9;4.4;;;;;;;;;;;;;-81
2022/03/15 16:43:50;;;;;;;;;;;;;;;16.21;60.43848;102310.3;;;;-81
2022/03/15 16:48:52;;;;;;;;;;;;;;;16.05;60.37012;102313.9;;;;-79
2022/03/15 16:53:50;;;;;;;;;;;;;;;15.85;60.44531;102312.8;;;;-80
2022/03/15 17:08:53;;;;;;;;;;;;;;;15.15;60.21582;102314.4;;;;-80
2022/03/15 17:10:39;;;;;;;12.1;5.4;;;;;;;;;;;;;-80
2022/03/15 17:13:50;;;;;;;;;;;;;;;14.92;60.36328;102317;;;;-79
2022/03/15 17:18:54;;;;;;;;;;;;;;;14.7;60.27539;102323.6;;;;-81
2022/03/15 17:23:53;;;;;;;;;;;;;;;14.5;60.11328;102332.5;;;;-79
2022/03/15 17:29:13;;;;;;;;;;;;;;;14.26;60.2959;102332.8;;;;-84
2022/03/15 17:33:38;;;;;;;;;;;;;;;;;;;;;
2022/03/15 17:38:19;;;;;;;;;;;;;;;13.85;60.12598;102338.4;;;;-82
2022/03/15 17:43:09;;;;;;;;;;;;;;;13.65;60.18848;102347;;;;-82
2022/03/15 17:48:13;;;;;;;;;;;;;;;13.43;60.22754;102353.3;;;;-81
2022/03/15 17:53:13;;;;;;;;;;;;;;;13.24;60.32324;102358.1;;;;-84
2022/03/15 17:58:12;;;;;;;;;;;;;;;13.03;60.27148;102357.7;;;;-82
2022/03/15 18:03:16;;;;;;;;;;;;;;;12.84;60.14453;102361.9;;;;-82
2022/03/15 18:08:18;;;;;;;;;;;;;;;12.67;60.33398;102370.3;;;;-82
2022/03/15 18:10:55;;;;;;;11.2;5.3;;;;;;;;;;;;;-81
2022/03/15 18:13:14;;;;;;;;;;;;;;;12.5;60.46777;102376.5;;;;-83
2022/03/15 18:18:13;;;;;;;;;;;;;;;12.33;60.5332;102377.4;;;;-81
2022/03/15 18:23:18;;;;;;;;;;;;;;;12.17;60.52246;102370.4;;;;-82
2022/03/15 18:28:12;;;;;;;;;;;;;;;12.02;60.83691;102369.4;;;;-83
2022/03/15 18:33:22;;;;;;;;;;;;;;;11.86;60.95996;102373.4;;;;-82
2022/03/15 18:38:23;;;;;;;;;;;;;;;11.72;61.05176;102373.4;;;;-82
2022/03/15 18:41:06;;;;;;;11.7;5.6;;;;;;;;;;;;;-83
2022/03/15 18:43:12;;;;;;;;;;;;;;;11.58;61.17773;102376.1;;;;-83
2022/03/15 18:48:10;;;;;;;;;;;;;;;11.46;61.2373;102375.1;;;;-83
2022/03/15 18:53:13;;;;;;;;;;;;;;;11.34;61.36621;102380.6;;;;-80
2022/03/15 18:58:09;;;;;;;;;;;;;;;11.2;61.4707;102387.2;;;;-82
2022/03/15 19:03:10;;;;;;;;;;;;;;;11.07;61.53027;102398.5;;;;-83
2022/03/15 19:08:12;;;;;;;;;;;;;;;10.95;61.69043;102403;;;;-82
2022/03/15 19:10:44;;;;;;;12.9;5.4;;;;;;;;;;;;;-81
2022/03/15 19:13:11;;;;;;;;;;;;;;;10.83;61.83008;102409.3;;;;-81
2022/03/15 19:18:14;;;;;;;;;;;;;;;10.69;61.9541;102418.5;;;;-81
2022/03/15 19:23:11;;;;;;;;;;;;;;;10.57;62.08203;102425.2;;;;-84
2022/03/15 19:28:11;;;;;;;;;;;;;;;10.43;62.17383;102425.7;;;;-82
2022/03/15 19:33:10;;;;;;;;;;;;;;;10.3;62.44336;102427.5;;;;-81
2022/03/15 19:38:09;;;;;;;;;;;;;;;10.15;62.66699;102426.2;;;;-79
2022/03/15 19:40:41;;;;;;;9.7;4.9;;;;;;;;;;;;;-81
2022/03/15 19:43:09;;;;;;;;;;;;;;;10.03;62.91699;102427.9;;;;-80
2022/03/15 19:48:15;;;;;;;;;;;;;;;9.91;63.05371;102428.2;;;;-81
2022/03/15 19:53:09;;;;;;;;;;;;;;;9.79;63.33594;102432.7;;;;-81
2022/03/15 19:58:16;;;;;;;;;;;;;;;9.69;63.39941;102433.1;;;;-81
2022/03/15 20:03:10;;;;;;;;;;;;;;;9.58;63.5498;102435.1;;;;-82
2022/03/15 20:08:12;;;;;;;;;;;;;;;9.48;63.92383;102433.6;;;;-80
2022/03/15 20:10:46;;;;;;;10.5;5.8;;;;;;;;;;;;;-81
2022/03/15 20:13:11;;;;;;;;;;;;;;;9.37;63.97363;102430.5;;;;-80
2022/03/15 20:18:10;;;;;;;;;;;;;;;9.29;64.01758;102439.4;;;;-80
2022/03/15 20:23:11;;;;;;;;;;;;;;;9.2;64.11523;102437.5;;;;-82
2022/03/15 20:28:09;;;;;;;;;;;;;;;9.09;64.25391;102436.6;;;;-81
2022/03/15 20:33:20;;;;;;;;;;;;;;;9.02;64.24316;102430.6;;;;-83
2022/03/15 20:38:16;;;;;;;;;;;;;;;8.94;64.3877;102432.8;;;;-81
2022/03/15 20:40:44;;;;;;;11.1;5.7;;;;;;;;;;;;;-82
2022/03/15 20:48:10;;;;;;;;;;;;;;;8.79;64.46387;102446.3;;;;-81
2022/03/15 20:53:09;;;;;;;;;;;;;;;8.71;64.50879;102455.9;;;;-79
2022/03/15 20:58:09;;;;;;;;;;;;;;;8.64;64.61914;102456.3;;;;-79
2022/03/15 21:03:23;;;;;;;;;;;;;;;8.57;64.62988;102469;;;;-80
2022/03/15 21:08:14;;;;;;;;;;;;;;;8.47;64.74902;102473.4;;;;-81
2022/03/15 21:10:45;;;;;;;13.6;6.1;;;;;;;;;;;;;-80
2022/03/15 21:13:13;;;;;;;;;;;;;;;8.4;64.86133;102483.2;;;;-80
2022/03/15 21:18:09;;;;;;;;;;;;;;;8.33;64.88477;102492.3;;;;-80
2022/03/15 21:23:17;;;;;;;;;;;;;;;8.26;64.93848;102501.6;;;;-80
2022/03/15 21:28:14;;;;;;;;;;;;;;;8.18;65.07129;102498.5;;;;-81
2022/03/15 21:33:19;;;;;;;;;;;;;;;8.1;65.14746;102497.3;;;;-81
2022/03/15 21:38:09;;;;;;;;;;;;;;;8.03;65.33594;102492.6;;;;-82
2022/03/15 21:40:45;;;;;;;10.3;5.3;;;;;;;;;;;;;-79
2022/03/15 21:43:09;;;;;;;;;;;;;;;7.96;65.54688;102495.9;;;;-79
2022/03/15 21:48:09;;;;;;;;;;;;;;;7.91;65.3623;102497.2;;;;-79
2022/03/15 21:53:18;;;;;;;;;;;;;;;7.84;65.35059;102510.6;;;;-81
2022/03/15 21:58:09;;;;;;;;;;;;;;;7.78;65.40723;102512.8;;;;-80
2022/03/15 22:03:09;;;;;;;;;;;;;;;7.72;65.49902;102519.3;;;;-80
2022/03/15 22:08:14;;;;;;;;;;;;;;;7.66;65.73242;102524;;;;-81
2022/03/15 22:10:45;;;;;;;8.7;4.6;;;;;;;;;;;;;-80
2022/03/15 22:13:14;;;;;;;;;;;;;;;7.61;65.64746;102518.7;;;;-81
2022/03/15 22:18:11;;;;;;;;;;;;;;;7.56;65.69434;102520.2;;;;-81
2022/03/15 22:23:08;;;;;;;;;;;;;;;7.53;65.83301;102524.3;;;;-80
2022/03/15 22:28:09;;;;;;;;;;;;;;;7.52;66.04199;102523.9;;;;-81
2022/03/15 23:18:09;;;;;;;;;;;;;;;7.14;65.99512;102529.6;;;;-81
2022/03/15 23:23:13;;;;;;;;;;;;;;;7.08;66.12988;102527.3;;;;-81
2022/03/15 23:28:09;;;;;;;;;;;;;;;7.03;66.14355;102527.3;;;;-81
2022/03/15 23:33:09;;;;;;;;;;;;;;;6.98;66.48926;102528.7;;;;-80
2022/03/15 23:38:10;;;;;;;;;;;;;;;6.94;66.41602;102528.9;;;;-81
2022/03/15 23:40:46;;;;;;;11.7;5.6;;;;;;;;;;;;;-80
2022/03/15 23:43:11;;;;;;;;;;;;;;;6.89;66.49707;102523.9;;;;-81
2022/03/15 23:48:09;;;;;;;;;;;;;;;6.85;66.63379;102529.9;;;;-82
2022/03/15 23:53:11;;;;;;;;;;;;;;;6.83;66.71875;102535.4;;;;-81
2022/03/15 23:58:10;;;;;;;;;;;;;;;6.81;67.03516;102536.5;;;;-81
